createdAt,value
2022-08-17T00:00:43.295Z,19.27
2022-08-17T00:03:35.886Z,22.67
2022-08-17T00:06:25.221Z,20.88
2022-08-17T00:09:10.508Z,27.52
2022-08-17T00:12:51.380Z,16.55
2022-08-17T00:15:12.066Z,23.88
2022-08-17T00:17:57.132Z,22.63
2022-08-17T00:20:42.414Z,20.48
2022-08-17T00:23:28.169Z,20.77
2022-08-17T00:26:14.414Z,24.90
2022-08-17T00:29:00.502Z,21.67
2022-08-17T00:31:45.600Z,19.80
2022-08-17T00:34:30.864Z,21.17
2022-08-17T00:37:16.959Z,22.00
2022-08-17T00:40:02.238Z,23.45
2022-08-17T00:42:49.559Z,19.58
2022-08-17T00:45:34.818Z,26.38
2022-08-17T00:48:29.017Z,24.67
2022-08-17T00:51:25.903Z,26.85
2022-08-17T00:54:10.846Z,24.83
2022-08-17T00:57:04.826Z,24.98
2022-08-17T01:00:01.813Z,23.85
2022-08-17T01:02:48.967Z,25.50
2022-08-17T01:05:38.351Z,24.45
2022-08-17T01:08:31.083Z,23.45
2022-08-17T01:11:17.179Z,29.15
2022-08-17T01:14:03.150Z,25.60
2022-08-17T01:16:50.602Z,31.13
2022-08-17T01:19:40.074Z,26.60
2022-08-17T01:22:25.578Z,23.80
2022-08-17T01:25:12.545Z,29.15
2022-08-17T01:27:57.602Z,24.02
2022-08-17T01:30:57.437Z,24.35
2022-08-17T01:33:44.495Z,22.35
2022-08-17T01:36:30.436Z,32.88
2022-08-17T01:39:30.693Z,21.98
2022-08-17T01:42:24.840Z,22.67
2022-08-17T01:45:20.724Z,21.80
2022-08-17T01:48:05.852Z,20.33
2022-08-17T01:50:51.960Z,22.90
2022-08-17T01:53:40.646Z,25.50
2022-08-17T01:56:27.905Z,22.93
2022-08-17T01:59:13.570Z,22.67
2022-08-17T02:02:00.777Z,24.77
2022-08-17T02:04:45.943Z,28.85
2022-08-17T02:07:30.855Z,23.42
2022-08-17T02:10:20.099Z,22.15
2022-08-17T02:13:05.865Z,26.00
2022-08-17T02:15:51.125Z,19.33
2022-08-17T02:18:36.469Z,19.05
2022-08-17T02:21:21.594Z,21.10
2022-08-17T02:24:10.836Z,23.70
2022-08-17T02:26:56.068Z,24.55
2022-08-17T02:29:41.050Z,21.83
2022-08-17T02:32:28.256Z,24.35
2022-08-17T02:35:14.471Z,16.08
2022-08-17T02:38:06.297Z,22.90
2022-08-17T02:40:51.825Z,18.42
2022-08-17T02:43:37.094Z,22.40
2022-08-17T02:46:22.640Z,19.73
2022-08-17T02:49:07.618Z,22.17
2022-08-17T02:51:52.575Z,22.58
2022-08-17T02:54:39.854Z,18.63
2022-08-17T02:57:27.044Z,22.02
2022-08-17T03:00:17.638Z,19.33
2022-08-17T03:03:05.553Z,18.75
2022-08-17T03:05:53.991Z,20.80
2022-08-17T03:08:39.113Z,23.38
2022-08-17T03:11:24.386Z,21.77
2022-08-17T03:14:09.659Z,21.02
2022-08-17T03:16:54.878Z,18.85
2022-08-17T03:19:42.902Z,21.10
2022-08-17T03:22:36.842Z,18.00
2022-08-17T03:25:27.457Z,18.92
2022-08-17T03:28:13.758Z,21.02
2022-08-17T03:30:59.046Z,19.05
2022-08-17T03:33:44.646Z,20.00
2022-08-17T03:36:29.791Z,25.10
2022-08-17T03:39:20.938Z,21.77
2022-08-17T03:42:32.564Z,24.17
2022-08-17T03:45:42.714Z,23.75
2022-08-17T03:48:47.186Z,25.33
2022-08-17T03:51:50.925Z,25.30
2022-08-17T03:54:55.122Z,22.10
2022-08-17T03:57:40.545Z,23.63
2022-08-17T04:00:27.686Z,21.55
2022-08-17T04:03:13.859Z,26.10
2022-08-17T04:06:00.299Z,18.63
2022-08-17T04:08:45.687Z,19.70
2022-08-17T04:11:30.934Z,19.52
2022-08-17T04:14:16.278Z,20.10
2022-08-17T04:17:01.519Z,17.63
2022-08-17T04:19:46.979Z,17.65
2022-08-17T04:22:34.328Z,17.55
2022-08-17T04:25:19.451Z,19.85
2022-08-17T04:28:15.521Z,18.52
2022-08-17T04:31:01.518Z,17.90
2022-08-17T04:33:46.945Z,17.08
2022-08-17T04:36:32.233Z,25.92
2022-08-17T04:39:17.485Z,21.77
2022-08-17T04:42:16.938Z,16.92
2022-08-17T04:45:04.475Z,19.75
2022-08-17T04:47:49.605Z,25.15
2022-08-17T04:50:36.274Z,24.13
2022-08-17T04:53:21.737Z,29.65
2022-08-17T04:56:07.902Z,36.60
2022-08-17T04:59:00.865Z,33.50
2022-08-17T05:01:50.913Z,31.45
2022-08-17T05:04:36.118Z,34.78
2022-08-17T05:07:24.605Z,35.47
2022-08-17T05:10:11.293Z,33.70
2022-08-17T05:13:02.009Z,32.40
2022-08-17T05:15:49.082Z,27.67
2022-08-17T05:18:34.799Z,26.95
2022-08-17T05:21:21.642Z,28.77
2022-08-17T05:24:09.671Z,31.58
2022-08-17T05:27:14.331Z,32.20
2022-08-17T05:30:04.545Z,32.58
2022-08-17T05:32:57.069Z,36.70
2022-08-17T05:35:46.913Z,37.50
2022-08-17T05:41:17.212Z,35.80
2022-08-17T05:44:05.212Z,35.60
2022-08-17T05:46:53.201Z,33.42
2022-08-17T05:49:38.678Z,34.17
2022-08-17T05:52:41.414Z,33.42
2022-08-17T05:55:35.598Z,38.40
2022-08-17T05:58:52.804Z,33.00
2022-08-17T06:01:51.431Z,24.90
2022-08-17T06:05:03.382Z,26.17
2022-08-17T06:08:00.799Z,26.80
2022-08-17T06:11:20.107Z,25.80
2022-08-17T06:14:07.930Z,29.40
2022-08-17T06:16:59.974Z,30.08
2022-08-17T06:19:48.164Z,32.22
2022-08-17T06:22:37.894Z,31.58
2022-08-17T06:28:34.297Z,30.17
2022-08-17T06:31:28.021Z,33.55
2022-08-17T06:34:13.577Z,31.58
2022-08-17T06:37:18.995Z,32.20
2022-08-17T06:40:22.830Z,32.17
2022-08-17T06:43:40.191Z,33.08
2022-08-17T06:46:36.159Z,33.20
2022-08-17T06:49:40.525Z,37.95
2022-08-17T06:52:43.387Z,35.25
2022-08-17T06:55:50.178Z,36.67
2022-08-17T06:58:40.129Z,40.03
2022-08-17T07:01:33.325Z,38.50
2022-08-17T07:04:23.809Z,39.30
2022-08-17T07:07:28.989Z,36.40
2022-08-17T07:10:14.757Z,36.88
2022-08-17T07:13:13.936Z,37.60
2022-08-17T07:16:07.682Z,34.53
2022-08-17T07:18:54.791Z,40.15
2022-08-17T07:21:52.150Z,38.17
2022-08-17T07:25:06.490Z,39.50
2022-08-17T07:27:55.790Z,39.05
2022-08-17T07:30:49.186Z,42.97
2022-08-17T07:33:36.811Z,43.63
2022-08-17T07:36:30.095Z,42.38
2022-08-17T07:39:27.714Z,38.65
2022-08-17T07:42:12.707Z,37.17
2022-08-17T07:44:58.079Z,35.15
2022-08-17T07:48:09.050Z,36.05
2022-08-17T07:50:54.460Z,36.22
2022-08-17T07:53:39.799Z,33.05
2022-08-17T07:56:45.252Z,34.42
2022-08-17T07:59:33.452Z,40.40
2022-08-17T08:02:26.459Z,34.22
2022-08-17T08:05:50.243Z,33.42
2022-08-17T08:08:50.413Z,30.48
2022-08-17T08:11:39.266Z,36.28
2022-08-17T08:14:33.926Z,37.38
2022-08-17T08:17:23.893Z,36.58
2022-08-17T08:20:51.106Z,43.53
2022-08-17T08:23:44.118Z,50.92
2022-08-17T08:26:55.469Z,57.47
2022-08-17T08:29:52.674Z,49.78
2022-08-17T08:33:07.549Z,49.83
2022-08-17T08:37:14.049Z,46.95
2022-08-17T08:39:32.564Z,48.47
2022-08-17T08:42:37.178Z,43.47
2022-08-17T08:45:46.772Z,46.80
2022-08-17T08:49:06.472Z,46.17
2022-08-17T08:52:02.577Z,45.08
2022-08-17T08:54:53.923Z,45.78
2022-08-17T08:58:32.198Z,46.88
2022-08-17T09:01:48.267Z,43.67
2022-08-17T09:05:14.232Z,41.47
2022-08-17T09:08:21.354Z,40.25
2022-08-17T09:11:18.284Z,37.58
2022-08-17T09:14:28.223Z,33.83
2022-08-17T09:17:20.612Z,42.67
2022-08-17T09:20:27.614Z,37.78
2022-08-17T09:23:19.593Z,53.97
2022-08-17T09:26:25.486Z,48.92
2022-08-17T09:29:14.218Z,33.28
2022-08-17T09:32:04.571Z,34.00
2022-08-17T09:35:01.480Z,41.80
2022-08-17T09:38:00.479Z,30.17
2022-08-17T09:40:48.859Z,37.95
2022-08-17T09:43:48.964Z,35.63
2022-08-17T09:46:44.015Z,31.55
2022-08-17T09:49:38.200Z,38.15
2022-08-17T09:52:27.187Z,31.08
2022-08-17T09:55:12.166Z,33.17
2022-08-17T09:58:16.880Z,34.70
2022-08-17T10:01:31.375Z,30.58
2022-08-17T10:04:38.763Z,33.65
2022-08-17T10:07:40.522Z,32.92
2022-08-17T10:10:32.495Z,35.45
2022-08-17T10:13:53.167Z,36.33
2022-08-17T10:16:50.000Z,33.65
2022-08-17T10:19:46.992Z,25.42
2022-08-17T10:23:01.128Z,27.08
2022-08-17T10:26:09.199Z,24.67
2022-08-17T10:29:01.835Z,31.20
2022-08-17T10:32:10.738Z,29.45
2022-08-17T10:35:10.762Z,31.40
2022-08-17T10:38:14.645Z,32.42
2022-08-17T10:41:24.082Z,29.00
2022-08-17T10:44:39.557Z,27.77
2022-08-17T10:47:17.304Z,28.58
2022-08-17T10:50:40.635Z,22.27
2022-08-17T10:53:31.810Z,26.98
2022-08-17T10:56:21.676Z,23.58
2022-08-17T10:59:07.791Z,19.35
2022-08-17T11:02:04.170Z,13.85
2022-08-17T11:04:57.220Z,14.00
2022-08-17T11:07:43.757Z,11.75
2022-08-17T11:10:53.785Z,12.20
2022-08-17T11:13:44.867Z,16.65
2022-08-17T11:16:49.738Z,16.02
2022-08-17T11:20:04.852Z,12.80
2022-08-17T11:23:05.109Z,12.65
2022-08-17T11:26:04.101Z,13.60
2022-08-17T11:28:52.648Z,11.73
2022-08-17T11:31:46.484Z,14.05
2022-08-17T11:34:34.926Z,13.60
2022-08-17T11:37:20.246Z,11.70
2022-08-17T11:40:58.989Z,19.65
2022-08-17T11:43:56.285Z,12.43
2022-08-17T11:47:26.166Z,14.75
2022-08-17T11:50:49.762Z,12.73
2022-08-17T11:53:37.977Z,12.18
2022-08-17T11:56:36.061Z,9.95
2022-08-17T11:59:32.787Z,20.30
2022-08-17T12:02:32.897Z,12.35
2022-08-17T12:05:18.065Z,9.55
2022-08-17T12:08:08.175Z,13.82
2022-08-17T12:10:53.317Z,10.70
2022-08-17T12:13:50.090Z,6.80
2022-08-17T12:16:35.193Z,8.77
2022-08-17T12:19:21.647Z,7.72
2022-08-17T12:22:12.733Z,11.07
2022-08-17T12:25:04.874Z,10.73
2022-08-17T12:28:06.352Z,12.77
2022-08-17T12:30:53.244Z,9.15
2022-08-17T12:33:43.750Z,9.82
2022-08-17T12:36:29.326Z,7.93
2022-08-17T12:39:21.326Z,7.72
2022-08-17T12:42:25.455Z,10.68
2022-08-17T12:45:32.561Z,9.75
2022-08-17T12:48:26.349Z,11.00
2022-08-17T12:51:12.680Z,12.80
2022-08-17T12:53:57.931Z,9.05
2022-08-17T12:56:46.002Z,11.55
2022-08-17T12:59:33.238Z,13.23
2022-08-17T13:02:38.696Z,11.98
2022-08-17T13:05:42.199Z,10.20
2022-08-17T13:08:32.668Z,9.10
2022-08-17T13:11:24.775Z,10.10
2022-08-17T13:14:10.598Z,12.55
2022-08-17T13:17:01.511Z,9.95
2022-08-17T13:19:50.938Z,9.55
2022-08-17T13:25:21.597Z,11.23
2022-08-17T13:28:18.540Z,8.50
2022-08-17T13:31:32.261Z,8.75
2022-08-17T13:34:16.985Z,3.03
2022-08-17T13:37:34.580Z,2.17
2022-08-17T13:40:19.533Z,2.25
2022-08-17T13:43:05.037Z,2.85
2022-08-17T13:45:52.197Z,3.80
2022-08-17T13:48:37.638Z,3.85
2022-08-17T13:51:29.942Z,4.38
2022-08-17T13:54:21.074Z,4.32
2022-08-17T13:57:11.991Z,4.20
2022-08-17T14:00:11.984Z,3.20
2022-08-17T14:02:58.761Z,2.72
2022-08-17T14:05:45.936Z,2.65
2022-08-17T14:08:31.207Z,2.13
2022-08-17T14:11:17.575Z,1.98
2022-08-17T14:14:03.977Z,3.42
2022-08-17T14:16:49.918Z,2.15
2022-08-17T14:19:36.143Z,1.98
2022-08-17T14:22:26.931Z,2.28
2022-08-17T14:25:15.128Z,2.55
2022-08-17T14:28:00.492Z,4.95
2022-08-17T14:30:46.319Z,1.53
2022-08-17T14:33:31.491Z,1.80
2022-08-17T14:36:16.640Z,2.20
2022-08-17T14:39:01.814Z,3.75
2022-08-17T14:41:47.489Z,2.80
2022-08-17T14:44:32.570Z,1.50
2022-08-17T14:47:17.794Z,2.10
2022-08-17T14:50:04.704Z,3.55
2022-08-17T14:52:55.804Z,2.63
2022-08-17T14:55:45.719Z,4.00
2022-08-17T14:58:32.542Z,2.55
2022-08-17T15:01:19.973Z,4.22
2022-08-17T15:04:05.792Z,4.30
2022-08-17T15:06:50.894Z,3.08
2022-08-17T15:09:35.830Z,6.38
2022-08-17T15:12:25.601Z,4.28
2022-08-17T15:15:17.273Z,5.88
2022-08-17T15:18:03.293Z,6.20
2022-08-17T15:20:50.080Z,4.43
2022-08-17T15:23:35.272Z,3.17
2022-08-17T15:26:26.055Z,6.53
2022-08-17T15:29:11.789Z,5.45
2022-08-17T15:32:00.586Z,2.88
2022-08-17T15:34:46.064Z,5.88
2022-08-17T15:37:32.085Z,3.28
2022-08-17T15:40:17.499Z,6.13
2022-08-17T15:43:11.450Z,7.72
2022-08-17T15:46:00.657Z,6.40
2022-08-17T15:48:49.079Z,3.17
2022-08-17T15:51:35.630Z,6.53
2022-08-17T15:54:22.707Z,4.30
2022-08-17T15:57:08.603Z,7.53
2022-08-17T15:59:58.558Z,4.90
2022-08-17T16:03:14.331Z,5.68
2022-08-17T16:05:50.132Z,11.55
2022-08-17T16:08:37.619Z,7.68
2022-08-17T16:11:23.038Z,5.35
2022-08-17T16:14:08.229Z,5.55
2022-08-17T16:16:53.553Z,5.15
2022-08-17T16:19:40.980Z,6.28
2022-08-17T16:22:38.778Z,5.10
2022-08-17T16:25:52.471Z,3.78
2022-08-17T16:28:36.226Z,6.07
2022-08-17T16:31:21.774Z,5.50
2022-08-17T16:34:17.503Z,5.78
2022-08-17T16:37:04.385Z,6.45
2022-08-17T16:39:49.808Z,5.25
2022-08-17T16:42:37.045Z,6.47
2022-08-17T16:45:28.053Z,7.35
2022-08-17T16:48:15.286Z,8.48
2022-08-17T16:51:04.160Z,4.95
2022-08-17T16:53:59.166Z,4.50
2022-08-17T16:56:44.549Z,4.20
2022-08-17T16:59:41.968Z,4.72
2022-08-17T17:02:34.045Z,4.38
2022-08-17T17:05:43.417Z,6.40
2022-08-17T17:08:40.686Z,4.60
2022-08-17T17:11:43.463Z,4.07
2022-08-17T17:14:42.952Z,7.90
2022-08-17T17:17:32.574Z,7.20
2022-08-17T17:23:06.923Z,6.47
2022-08-17T17:26:20.887Z,4.70
2022-08-17T17:29:16.238Z,8.20
2022-08-17T17:32:01.382Z,5.13
2022-08-17T17:34:53.281Z,7.15
2022-08-17T17:37:42.762Z,7.35
2022-08-17T17:40:40.273Z,6.20
2022-08-17T17:43:38.916Z,9.30
2022-08-17T17:46:35.238Z,7.80
2022-08-17T17:49:20.915Z,5.82
2022-08-17T17:52:29.591Z,7.95
2022-08-17T17:55:26.939Z,8.38
2022-08-17T17:58:19.610Z,9.32
2022-08-17T18:01:18.653Z,8.60
2022-08-17T18:04:37.943Z,6.30
2022-08-17T18:07:32.399Z,5.97
2022-08-17T18:10:29.497Z,8.38
2022-08-17T18:13:37.952Z,5.70
2022-08-17T18:16:23.370Z,11.10
2022-08-17T18:19:20.594Z,8.55
2022-08-17T18:22:19.701Z,5.75
2022-08-17T18:25:39.880Z,6.57
2022-08-17T18:28:30.112Z,10.63
2022-08-17T18:31:15.075Z,6.15
2022-08-17T18:34:46.040Z,5.13
2022-08-17T18:37:34.411Z,7.10
2022-08-17T18:40:19.943Z,6.72
2022-08-17T18:43:13.419Z,7.70
2022-08-17T18:46:37.693Z,6.22
2022-08-17T18:49:28.476Z,5.53
2022-08-17T18:52:29.083Z,8.95
2022-08-17T18:55:23.508Z,6.80
2022-08-17T18:58:24.466Z,9.18
2022-08-17T19:01:20.690Z,7.43
2022-08-17T19:04:15.087Z,6.78
2022-08-17T19:07:11.486Z,7.25
2022-08-17T19:10:06.958Z,8.68
2022-08-17T19:13:00.648Z,6.85
2022-08-17T19:16:12.080Z,7.32
2022-08-17T19:19:14.455Z,6.68
2022-08-17T19:22:30.659Z,6.72
2022-08-17T19:25:27.121Z,8.63
2022-08-17T19:28:32.913Z,6.72
2022-08-17T19:31:22.202Z,10.45
2022-08-17T19:34:07.433Z,9.15
2022-08-17T19:37:16.911Z,5.30
2022-08-17T19:40:48.765Z,8.02
2022-08-17T19:43:42.903Z,7.45
2022-08-17T19:46:58.442Z,10.07
2022-08-17T19:50:08.714Z,11.18
2022-08-17T19:53:07.283Z,10.30
2022-08-17T19:56:07.086Z,6.75
2022-08-17T19:58:58.119Z,8.63
2022-08-17T20:01:52.753Z,9.20
2022-08-17T20:04:42.933Z,8.57
2022-08-17T20:10:47.310Z,10.32
2022-08-17T20:14:09.493Z,9.68
2022-08-17T20:16:59.289Z,9.50
2022-08-17T20:19:53.207Z,8.40
2022-08-17T20:22:54.793Z,12.93
2022-08-17T20:25:51.989Z,12.38
2022-08-17T20:28:39.038Z,8.68
2022-08-17T20:31:44.632Z,9.23
2022-08-17T20:34:39.626Z,10.48
2022-08-17T20:37:33.966Z,9.68
2022-08-17T20:40:26.385Z,8.00
2022-08-17T20:43:29.794Z,9.55
2022-08-17T20:46:23.908Z,12.88
2022-08-17T20:49:08.833Z,12.90
2022-08-17T20:52:08.888Z,14.38
2022-08-17T20:57:40.061Z,12.18
2022-08-17T21:00:28.023Z,10.98
2022-08-17T21:03:50.516Z,11.02
2022-08-17T21:07:22.407Z,12.38
2022-08-17T21:10:13.890Z,9.93
2022-08-17T21:13:04.374Z,9.95
2022-08-17T21:15:53.113Z,9.13
2022-08-17T21:19:00.019Z,11.18
2022-08-17T21:21:46.517Z,11.57
2022-08-17T21:24:45.392Z,10.82
2022-08-17T21:27:30.614Z,14.40
2022-08-17T21:30:47.445Z,10.43
2022-08-17T21:33:34.116Z,9.48
2022-08-17T21:36:25.532Z,12.32
2022-08-17T21:39:39.520Z,12.45
2022-08-17T21:42:29.535Z,9.80
2022-08-17T21:45:20.623Z,13.50
2022-08-17T21:48:16.469Z,12.07
2022-08-17T21:51:14.433Z,10.07
2022-08-17T21:54:03.740Z,13.50
2022-08-17T21:56:49.117Z,10.02
2022-08-17T21:59:38.743Z,12.70
2022-08-17T22:02:28.275Z,10.07
2022-08-17T22:05:15.276Z,13.88
2022-08-17T22:08:16.548Z,12.88
2022-08-17T22:11:02.436Z,13.77
2022-08-17T22:13:47.317Z,17.20
2022-08-17T22:16:34.786Z,14.93
2022-08-17T22:19:21.079Z,12.73
2022-08-17T22:22:09.654Z,16.00
2022-08-17T22:24:57.944Z,13.05
2022-08-17T22:27:45.678Z,15.95
2022-08-17T22:30:32.830Z,21.98
2022-08-17T22:33:33.311Z,16.92
2022-08-17T22:36:38.723Z,16.40
2022-08-17T22:39:23.789Z,19.48
2022-08-17T22:42:14.500Z,19.67
2022-08-17T22:45:00.304Z,21.85
2022-08-17T22:47:48.787Z,20.90
2022-08-17T22:50:34.216Z,19.35
2022-08-17T22:53:41.351Z,23.33
2022-08-17T22:56:45.211Z,24.02
2022-08-17T22:59:57.494Z,18.65
2022-08-17T23:03:09.083Z,21.55
2022-08-17T23:06:08.065Z,24.20
2022-08-17T23:08:57.929Z,18.65
2022-08-17T23:11:49.970Z,18.48
2022-08-17T23:14:39.184Z,19.08
2022-08-17T23:17:24.411Z,14.68
2022-08-17T23:20:12.957Z,22.60
2022-08-17T23:22:59.586Z,15.73
2022-08-17T23:25:46.251Z,21.10
2022-08-17T23:28:31.194Z,25.27
2022-08-17T23:31:19.859Z,25.00
2022-08-17T23:34:15.080Z,23.40
2022-08-17T23:37:02.252Z,22.40
2022-08-17T23:39:47.371Z,28.17
2022-08-17T23:42:33.644Z,22.70
2022-08-17T23:45:20.059Z,21.92
2022-08-17T23:48:07.812Z,25.23
2022-08-17T23:50:54.362Z,22.75
2022-08-17T23:53:45.132Z,19.90
2022-08-17T23:56:33.378Z,20.30
2022-08-17T23:59:20.467Z,21.38
